sensor_id;sensor_type;location;lat;lon;timestamp;temperature;humidity
69054;DHT22;56125;52.242;4.756;2022-09-16T00:00:03;22.00;52.20
69054;DHT22;56125;52.242;4.756;2022-09-16T00:05:05;22.00;52.30
69054;DHT22;56125;52.242;4.756;2022-09-16T00:10:06;22.00;52.30
69054;DHT22;56125;52.242;4.756;2022-09-16T00:15:08;22.00;52.30
69054;DHT22;56125;52.242;4.756;2022-09-16T00:20:10;22.00;52.40
69054;DHT22;56125;52.242;4.756;2022-09-16T00:25:11;21.90;52.30
69054;DHT22;56125;52.242;4.756;2022-09-16T00:30:12;21.90;52.30
69054;DHT22;56125;52.242;4.756;2022-09-16T00:35:13;21.90;52.30
69054;DHT22;56125;52.242;4.756;2022-09-16T00:40:14;21.90;52.40
69054;DHT22;56125;52.242;4.756;2022-09-16T00:45:21;21.90;52.30
69054;DHT22;56125;52.242;4.756;2022-09-16T00:50:46;21.90;52.40
69054;DHT22;56125;52.242;4.756;2022-09-16T00:55:50;21.90;52.40
69054;DHT22;56125;52.242;4.756;2022-09-16T01:00:54;21.90;52.50
69054;DHT22;56125;52.242;4.756;2022-09-16T01:05:56;21.90;52.50
69054;DHT22;56125;52.242;4.756;2022-09-16T01:10:57;21.90;52.50
69054;DHT22;56125;52.242;4.756;2022-09-16T01:22:12;21.90;52.50
69054;DHT22;56125;52.242;4.756;2022-09-16T01:33:03;21.80;52.50
69054;DHT22;56125;52.242;4.756;2022-09-16T01:43:45;21.80;52.50
69054;DHT22;56125;52.242;4.756;2022-09-16T01:54:22;21.80;52.60
69054;DHT22;56125;52.242;4.756;2022-09-16T01:59:41;21.80;52.60
69054;DHT22;56125;52.242;4.756;2022-09-16T02:04:48;21.80;52.60
69054;DHT22;56125;52.242;4.756;2022-09-16T02:09:55;21.80;52.60
69054;DHT22;56125;52.242;4.756;2022-09-16T02:15:01;21.80;52.60
69054;DHT22;56125;52.242;4.756;2022-09-16T02:20:07;21.80;52.60
69054;DHT22;56125;52.242;4.756;2022-09-16T02:25:10;21.80;52.50
69054;DHT22;56125;52.242;4.756;2022-09-16T02:30:20;21.70;52.60
69054;DHT22;56125;52.242;4.756;2022-09-16T02:35:22;21.70;52.50
69054;DHT22;56125;52.242;4.756;2022-09-16T02:40:31;21.80;52.60
69054;DHT22;56125;52.242;4.756;2022-09-16T02:45:57;21.80;52.60
69054;DHT22;56125;52.242;4.756;2022-09-16T02:56:28;21.70;52.50
69054;DHT22;56125;52.242;4.756;2022-09-16T03:01:32;21.70;52.50
69054;DHT22;56125;52.242;4.756;2022-09-16T03:06:34;21.60;52.40
69054;DHT22;56125;52.242;4.756;2022-09-16T03:17:51;21.70;52.50
69054;DHT22;56125;52.242;4.756;2022-09-16T03:23:59;21.70;52.50
69054;DHT22;56125;52.242;4.756;2022-09-16T03:28:46;21.70;52.50
69054;DHT22;56125;52.242;4.756;2022-09-16T03:39:05;21.60;52.40
69054;DHT22;56125;52.242;4.756;2022-09-16T03:44:06;21.60;52.70
69054;DHT22;56125;52.242;4.756;2022-09-16T03:49:07;21.70;52.60
69054;DHT22;56125;52.242;4.756;2022-09-16T03:54:08;21.70;52.50
69054;DHT22;56125;52.242;4.756;2022-09-16T03:59:09;21.70;52.50
69054;DHT22;56125;52.242;4.756;2022-09-16T04:04:10;21.70;52.50
69054;DHT22;56125;52.242;4.756;2022-09-16T04:09:12;21.60;52.50
69054;DHT22;56125;52.242;4.756;2022-09-16T04:14:13;21.60;52.60
69054;DHT22;56125;52.242;4.756;2022-09-16T04:19:15;21.60;52.50
69054;DHT22;56125;52.242;4.756;2022-09-16T04:24:16;21.60;52.50
69054;DHT22;56125;52.242;4.756;2022-09-16T04:29:17;21.60;52.50
69054;DHT22;56125;52.242;4.756;2022-09-16T04:34:18;21.60;52.60
69054;DHT22;56125;52.242;4.756;2022-09-16T04:39:19;21.60;52.70
69054;DHT22;56125;52.242;4.756;2022-09-16T04:44:20;21.50;52.60
69054;DHT22;56125;52.242;4.756;2022-09-16T04:49:21;21.50;53.70
69054;DHT22;56125;52.242;4.756;2022-09-16T04:54:22;21.60;52.70
69054;DHT22;56125;52.242;4.756;2022-09-16T04:59:23;21.60;52.70
69054;DHT22;56125;52.242;4.756;2022-09-16T05:04:24;21.60;52.70
69054;DHT22;56125;52.242;4.756;2022-09-16T05:09:25;21.60;53.70
69054;DHT22;56125;52.242;4.756;2022-09-16T05:14:26;21.60;52.70
69054;DHT22;56125;52.242;4.756;2022-09-16T05:19:27;21.50;52.70
69054;DHT22;56125;52.242;4.756;2022-09-16T05:24:29;21.50;52.70
69054;DHT22;56125;52.242;4.756;2022-09-16T05:29:30;21.50;52.80
69054;DHT22;56125;52.242;4.756;2022-09-16T05:34:31;21.50;53.80
69054;DHT22;56125;52.242;4.756;2022-09-16T05:39:32;21.50;52.80
69054;DHT22;56125;52.242;4.756;2022-09-16T05:44:34;21.50;52.80
69054;DHT22;56125;52.242;4.756;2022-09-16T05:49:35;21.50;52.70
69054;DHT22;56125;52.242;4.756;2022-09-16T05:54:36;21.50;52.60
69054;DHT22;56125;52.242;4.756;2022-09-16T05:59:37;21.50;52.50
69054;DHT22;56125;52.242;4.756;2022-09-16T06:04:39;21.60;52.40
69054;DHT22;56125;52.242;4.756;2022-09-16T06:09:40;21.60;52.30
69054;DHT22;56125;52.242;4.756;2022-09-16T06:14:41;21.60;52.40
69054;DHT22;56125;52.242;4.756;2022-09-16T06:19:42;21.60;52.30
69054;DHT22;56125;52.242;4.756;2022-09-16T06:24:43;21.60;52.30
69054;DHT22;56125;52.242;4.756;2022-09-16T06:29:44;21.60;52.10
69054;DHT22;56125;52.242;4.756;2022-09-16T06:34:45;21.60;52.00
69054;DHT22;56125;52.242;4.756;2022-09-16T06:39:46;21.60;52.10
69054;DHT22;56125;52.242;4.756;2022-09-16T06:44:47;21.60;53.20
69054;DHT22;56125;52.242;4.756;2022-09-16T06:49:48;21.60;52.00
69054;DHT22;56125;52.242;4.756;2022-09-16T06:54:49;21.60;52.00
69054;DHT22;56125;52.242;4.756;2022-09-16T06:59:51;21.60;51.90
69054;DHT22;56125;52.242;4.756;2022-09-16T07:04:52;21.70;52.10
69054;DHT22;56125;52.242;4.756;2022-09-16T07:09:53;21.70;51.90
69054;DHT22;56125;52.242;4.756;2022-09-16T07:14:54;21.70;52.30
69054;DHT22;56125;52.242;4.756;2022-09-16T07:19:55;21.70;52.20
69054;DHT22;56125;52.242;4.756;2022-09-16T07:24:56;21.80;52.30
69054;DHT22;56125;52.242;4.756;2022-09-16T07:29:57;21.80;52.10
69054;DHT22;56125;52.242;4.756;2022-09-16T07:34:58;21.80;52.30
69054;DHT22;56125;52.242;4.756;2022-09-16T07:39:59;21.70;51.50
69054;DHT22;56125;52.242;4.756;2022-09-16T07:45:00;21.70;51.60
69054;DHT22;56125;52.242;4.756;2022-09-16T07:50:01;21.70;51.70
69054;DHT22;56125;52.242;4.756;2022-09-16T07:55:02;21.70;52.00
69054;DHT22;56125;52.242;4.756;2022-09-16T08:00:04;21.70;52.20
69054;DHT22;56125;52.242;4.756;2022-09-16T08:05:05;21.70;51.90
69054;DHT22;56125;52.242;4.756;2022-09-16T08:10:06;21.70;52.20
69054;DHT22;56125;52.242;4.756;2022-09-16T08:15:08;21.70;52.30
69054;DHT22;56125;52.242;4.756;2022-09-16T08:20:09;21.70;52.70
69054;DHT22;56125;52.242;4.756;2022-09-16T08:25:10;21.70;52.20
69054;DHT22;56125;52.242;4.756;2022-09-16T08:30:12;21.70;52.20
69054;DHT22;56125;52.242;4.756;2022-09-16T08:35:13;21.70;52.30
69054;DHT22;56125;52.242;4.756;2022-09-16T08:40:15;21.70;52.40
69054;DHT22;56125;52.242;4.756;2022-09-16T08:45:41;21.70;52.30
69054;DHT22;56125;52.242;4.756;2022-09-16T08:50:45;21.70;52.10
69054;DHT22;56125;52.242;4.756;2022-09-16T08:55:48;21.70;52.30
69054;DHT22;56125;52.242;4.756;2022-09-16T09:00:59;21.70;52.20
69054;DHT22;56125;52.242;4.756;2022-09-16T09:06:22;21.70;52.10
69054;DHT22;56125;52.242;4.756;2022-09-16T09:11:38;21.70;51.90
69054;DHT22;56125;52.242;4.756;2022-09-16T09:33:46;21.70;52.00
69054;DHT22;56125;52.242;4.756;2022-09-16T09:39:18;21.70;51.90
69054;DHT22;56125;52.242;4.756;2022-09-16T09:44:51;21.70;51.90
69054;DHT22;56125;52.242;4.756;2022-09-16T09:49:56;21.70;51.80
69054;DHT22;56125;52.242;4.756;2022-09-16T09:55:12;21.70;51.90
69054;DHT22;56125;52.242;4.756;2022-09-16T10:00:16;21.70;51.70
69054;DHT22;56125;52.242;4.756;2022-09-16T10:05:22;21.70;51.70
69054;DHT22;56125;52.242;4.756;2022-09-16T10:10:25;21.70;51.70
69054;DHT22;56125;52.242;4.756;2022-09-16T10:15:29;21.70;51.90
69054;DHT22;56125;52.242;4.756;2022-09-16T10:20:34;21.70;51.60
69054;DHT22;56125;52.242;4.756;2022-09-16T10:25:36;21.70;51.30
69054;DHT22;56125;52.242;4.756;2022-09-16T10:30:55;21.80;51.50
69054;DHT22;56125;52.242;4.756;2022-09-16T10:36:01;21.80;51.60
69054;DHT22;56125;52.242;4.756;2022-09-16T10:41:24;21.80;51.90
69054;DHT22;56125;52.242;4.756;2022-09-16T10:46:27;21.70;51.50
69054;DHT22;56125;52.242;4.756;2022-09-16T10:51:30;21.70;51.30
69054;DHT22;56125;52.242;4.756;2022-09-16T10:56:45;21.70;51.40
69054;DHT22;56125;52.242;4.756;2022-09-16T11:07:47;21.70;51.10
69054;DHT22;56125;52.242;4.756;2022-09-16T11:34:14;21.80;51.50
69054;DHT22;56125;52.242;4.756;2022-09-16T11:39:41;21.70;51.40
69054;DHT22;56125;52.242;4.756;2022-09-16T11:45:04;21.80;51.50
69054;DHT22;56125;52.242;4.756;2022-09-16T11:50:19;21.80;51.70
69054;DHT22;56125;52.242;4.756;2022-09-16T11:55:39;21.80;51.60
69054;DHT22;56125;52.242;4.756;2022-09-16T12:00:46;21.80;51.70
69054;DHT22;56125;52.242;4.756;2022-09-16T12:05:51;21.70;51.50
69054;DHT22;56125;52.242;4.756;2022-09-16T12:11:01;21.70;51.50
69054;DHT22;56125;52.242;4.756;2022-09-16T12:16:10;21.70;51.20
69054;DHT22;56125;52.242;4.756;2022-09-16T12:21:26;21.70;51.00
69054;DHT22;56125;52.242;4.756;2022-09-16T12:36:47;21.80;50.90
69054;DHT22;56125;52.242;4.756;2022-09-16T12:47:49;21.80;50.80
69054;DHT22;56125;52.242;4.756;2022-09-16T13:03:28;21.80;50.50
69054;DHT22;56125;52.242;4.756;2022-09-16T13:08:32;21.80;49.90
69054;DHT22;56125;52.242;4.756;2022-09-16T13:13:40;21.80;50.40
69054;DHT22;56125;52.242;4.756;2022-09-16T13:18:44;21.80;50.50
69054;DHT22;56125;52.242;4.756;2022-09-16T13:23:48;21.80;50.00
69054;DHT22;56125;52.242;4.756;2022-09-16T13:28:51;21.80;50.10
69054;DHT22;56125;52.242;4.756;2022-09-16T13:39:10;21.90;50.50
69054;DHT22;56125;52.242;4.756;2022-09-16T13:44:38;21.90;50.30
69054;DHT22;56125;52.242;4.756;2022-09-16T13:49:52;21.90;50.30
69054;DHT22;56125;52.242;4.756;2022-09-16T13:54:58;21.90;50.10
69054;DHT22;56125;52.242;4.756;2022-09-16T14:00:14;21.90;50.10
69054;DHT22;56125;52.242;4.756;2022-09-16T14:10:54;21.90;49.70
69054;DHT22;56125;52.242;4.756;2022-09-16T14:15:57;21.90;49.70
69054;DHT22;56125;52.242;4.756;2022-09-16T14:21:01;21.90;49.70
69054;DHT22;56125;52.242;4.756;2022-09-16T14:26:13;21.90;50.00
69054;DHT22;56125;52.242;4.756;2022-09-16T14:31:18;21.90;49.60
69054;DHT22;56125;52.242;4.756;2022-09-16T14:36:24;21.90;49.60
69054;DHT22;56125;52.242;4.756;2022-09-16T14:41:40;21.90;49.30
69054;DHT22;56125;52.242;4.756;2022-09-16T14:51:55;21.90;49.30
69054;DHT22;56125;52.242;4.756;2022-09-16T14:57:05;21.90;49.60
69054;DHT22;56125;52.242;4.756;2022-09-16T15:02:30;21.90;49.30
69054;DHT22;56125;52.242;4.756;2022-09-16T15:07:37;21.90;49.00
69054;DHT22;56125;52.242;4.756;2022-09-16T15:12:54;21.90;48.90
69054;DHT22;56125;52.242;4.756;2022-09-16T15:18:09;21.90;49.50
69054;DHT22;56125;52.242;4.756;2022-09-16T15:23:20;21.90;49.00
69054;DHT22;56125;52.242;4.756;2022-09-16T15:28:23;21.90;48.90
69054;DHT22;56125;52.242;4.756;2022-09-16T15:33:35;21.90;48.90
69054;DHT22;56125;52.242;4.756;2022-09-16T15:38:36;21.90;48.80
69054;DHT22;56125;52.242;4.756;2022-09-16T15:43:44;21.90;48.80
69054;DHT22;56125;52.242;4.756;2022-09-16T15:48:51;21.90;48.60
69054;DHT22;56125;52.242;4.756;2022-09-16T15:53:57;21.80;48.30
69054;DHT22;56125;52.242;4.756;2022-09-16T15:59:03;21.80;48.60
69054;DHT22;56125;52.242;4.756;2022-09-16T16:04:08;21.80;48.60
69054;DHT22;56125;52.242;4.756;2022-09-16T16:14:30;21.80;48.40
69054;DHT22;56125;52.242;4.756;2022-09-16T16:19:32;21.80;48.40
69054;DHT22;56125;52.242;4.756;2022-09-16T16:24:33;21.80;48.30
69054;DHT22;56125;52.242;4.756;2022-09-16T16:29:35;21.80;48.40
69054;DHT22;56125;52.242;4.756;2022-09-16T16:34:38;21.80;48.50
69054;DHT22;56125;52.242;4.756;2022-09-16T16:39:40;21.80;48.40
69054;DHT22;56125;52.242;4.756;2022-09-16T16:44:41;21.70;48.40
69054;DHT22;56125;52.242;4.756;2022-09-16T16:49:42;21.70;48.40
69054;DHT22;56125;52.242;4.756;2022-09-16T16:54:43;21.70;48.50
69054;DHT22;56125;52.242;4.756;2022-09-16T16:59:45;21.70;48.40
69054;DHT22;56125;52.242;4.756;2022-09-16T17:04:46;21.70;48.50
69054;DHT22;56125;52.242;4.756;2022-09-16T17:09:47;21.70;48.30
69054;DHT22;56125;52.242;4.756;2022-09-16T17:14:49;21.70;48.40
69054;DHT22;56125;52.242;4.756;2022-09-16T17:19:50;21.70;48.20
69054;DHT22;56125;52.242;4.756;2022-09-16T17:24:51;21.70;48.30
69054;DHT22;56125;52.242;4.756;2022-09-16T17:29:52;21.60;48.40
69054;DHT22;56125;52.242;4.756;2022-09-16T17:34:53;21.60;48.20
69054;DHT22;56125;52.242;4.756;2022-09-16T17:39:54;21.60;48.20
69054;DHT22;56125;52.242;4.756;2022-09-16T17:44:55;21.60;48.10
69054;DHT22;56125;52.242;4.756;2022-09-16T17:49:56;21.60;48.40
69054;DHT22;56125;52.242;4.756;2022-09-16T17:54:59;21.60;48.40
69054;DHT22;56125;52.242;4.756;2022-09-16T18:00:00;21.50;48.50
69054;DHT22;56125;52.242;4.756;2022-09-16T18:05:01;21.60;48.70
69054;DHT22;56125;52.242;4.756;2022-09-16T18:10:03;21.60;48.70
69054;DHT22;56125;52.242;4.756;2022-09-16T18:15:04;21.60;48.90
69054;DHT22;56125;52.242;4.756;2022-09-16T18:20:07;21.50;49.00
69054;DHT22;56125;52.242;4.756;2022-09-16T18:25:08;21.50;48.90
69054;DHT22;56125;52.242;4.756;2022-09-16T18:30:09;21.50;48.90
69054;DHT22;56125;52.242;4.756;2022-09-16T18:35:11;21.40;48.80
69054;DHT22;56125;52.242;4.756;2022-09-16T18:40:12;21.50;48.90
69054;DHT22;56125;52.242;4.756;2022-09-16T18:45:14;21.50;48.90
69054;DHT22;56125;52.242;4.756;2022-09-16T18:50:15;21.40;49.00
69054;DHT22;56125;52.242;4.756;2022-09-16T18:55:16;21.40;49.10
69054;DHT22;56125;52.242;4.756;2022-09-16T19:00:17;21.40;49.10
69054;DHT22;56125;52.242;4.756;2022-09-16T19:05:18;21.40;49.20
69054;DHT22;56125;52.242;4.756;2022-09-16T19:10:19;21.40;49.20
69054;DHT22;56125;52.242;4.756;2022-09-16T19:15:20;21.40;49.40
69054;DHT22;56125;52.242;4.756;2022-09-16T19:20:22;21.40;49.50
69054;DHT22;56125;52.242;4.756;2022-09-16T19:25:23;21.40;49.70
69054;DHT22;56125;52.242;4.756;2022-09-16T19:30:24;21.40;49.70
69054;DHT22;56125;52.242;4.756;2022-09-16T19:35:29;21.40;49.80
69054;DHT22;56125;52.242;4.756;2022-09-16T19:40:31;21.40;50.00
69054;DHT22;56125;52.242;4.756;2022-09-16T19:45:32;21.30;50.00
69054;DHT22;56125;52.242;4.756;2022-09-16T19:50:33;21.30;50.20
69054;DHT22;56125;52.242;4.756;2022-09-16T19:55:34;21.30;50.20
69054;DHT22;56125;52.242;4.756;2022-09-16T20:00:35;21.30;50.20
69054;DHT22;56125;52.242;4.756;2022-09-16T20:05:36;21.30;50.20
69054;DHT22;56125;52.242;4.756;2022-09-16T20:10:37;21.30;50.20
69054;DHT22;56125;52.242;4.756;2022-09-16T20:15:38;21.30;50.20
69054;DHT22;56125;52.242;4.756;2022-09-16T20:20:39;21.30;50.20
69054;DHT22;56125;52.242;4.756;2022-09-16T20:25:40;21.30;50.30
69054;DHT22;56125;52.242;4.756;2022-09-16T20:30:45;21.30;50.20
69054;DHT22;56125;52.242;4.756;2022-09-16T20:35:46;21.30;50.40
69054;DHT22;56125;52.242;4.756;2022-09-16T20:40:47;21.30;50.50
69054;DHT22;56125;52.242;4.756;2022-09-16T20:45:48;21.30;50.50
69054;DHT22;56125;52.242;4.756;2022-09-16T20:50:49;21.20;50.50
69054;DHT22;56125;52.242;4.756;2022-09-16T20:55:50;21.20;50.50
69054;DHT22;56125;52.242;4.756;2022-09-16T21:00:51;21.20;51.20
69054;DHT22;56125;52.242;4.756;2022-09-16T21:05:52;21.20;50.70
69054;DHT22;56125;52.242;4.756;2022-09-16T21:11:12;21.30;50.70
69054;DHT22;56125;52.242;4.756;2022-09-16T21:16:14;21.20;50.70
69054;DHT22;56125;52.242;4.756;2022-09-16T21:21:17;21.20;50.70
69054;DHT22;56125;52.242;4.756;2022-09-16T21:26:21;21.20;50.70
69054;DHT22;56125;52.242;4.756;2022-09-16T21:31:24;21.20;50.70
69054;DHT22;56125;52.242;4.756;2022-09-16T21:36:26;21.20;50.70
69054;DHT22;56125;52.242;4.756;2022-09-16T21:41:30;21.20;50.80
69054;DHT22;56125;52.242;4.756;2022-09-16T21:46:33;21.20;50.80
69054;DHT22;56125;52.242;4.756;2022-09-16T21:51:40;21.20;50.80
69054;DHT22;56125;52.242;4.756;2022-09-16T21:56:41;21.20;50.80
69054;DHT22;56125;52.242;4.756;2022-09-16T22:01:42;21.20;51.80
69054;DHT22;56125;52.242;4.756;2022-09-16T22:06:44;21.20;50.80
69054;DHT22;56125;52.242;4.756;2022-09-16T22:11:45;21.10;50.70
69054;DHT22;56125;52.242;4.756;2022-09-16T22:16:47;21.10;50.70
69054;DHT22;56125;52.242;4.756;2022-09-16T22:21:49;21.10;50.90
69054;DHT22;56125;52.242;4.756;2022-09-16T22:26:50;21.10;50.90
69054;DHT22;56125;52.242;4.756;2022-09-16T22:31:51;21.10;50.80
69054;DHT22;56125;52.242;4.756;2022-09-16T22:36:52;21.10;50.90
69054;DHT22;56125;52.242;4.756;2022-09-16T22:41:53;21.10;50.90
69054;DHT22;56125;52.242;4.756;2022-09-16T22:46:55;21.10;51.00
69054;DHT22;56125;52.242;4.756;2022-09-16T22:51:56;21.10;51.00
69054;DHT22;56125;52.242;4.756;2022-09-16T22:56:57;21.10;51.10
69054;DHT22;56125;52.242;4.756;2022-09-16T23:01:58;21.10;51.10
69054;DHT22;56125;52.242;4.756;2022-09-16T23:06:59;21.10;51.10
69054;DHT22;56125;52.242;4.756;2022-09-16T23:12:00;21.10;51.10
69054;DHT22;56125;52.242;4.756;2022-09-16T23:17:01;21.10;51.20
69054;DHT22;56125;52.242;4.756;2022-09-16T23:22:02;21.10;51.10
69054;DHT22;56125;52.242;4.756;2022-09-16T23:27:03;21.00;51.10
69054;DHT22;56125;52.242;4.756;2022-09-16T23:32:04;21.00;51.10
69054;DHT22;56125;52.242;4.756;2022-09-16T23:37:05;21.10;51.20
69054;DHT22;56125;52.242;4.756;2022-09-16T23:42:06;21.10;51.10
69054;DHT22;56125;52.242;4.756;2022-09-16T23:47:07;21.00;51.20
69054;DHT22;56125;52.242;4.756;2022-09-16T23:52:08;21.10;51.20
69054;DHT22;56125;52.242;4.756;2022-09-16T23:57:09;21.00;51.20
